sensor_id;sensor_type;location;lat;lon;timestamp;pressure;altitude;pressure_sealevel;temperature;humidity
9717;BME280;4897;43.570;27.832;2023-02-03T00:01:50;99090.91;;;1.06;100.00
9717;BME280;4897;43.570;27.832;2023-02-03T00:04:17;99088.56;;;1.00;100.00
9717;BME280;4897;43.570;27.832;2023-02-03T00:06:44;99089.34;;;1.02;100.00
9717;BME280;4897;43.570;27.832;2023-02-03T00:09:13;99094.44;;;1.05;100.00
9717;BME280;4897;43.570;27.832;2023-02-03T00:11:40;99086.41;;;1.08;100.00
9717;BME280;4897;43.570;27.832;2023-02-03T00:14:07;99093.25;;;1.12;100.00
9717;BME280;4897;43.570;27.832;2023-02-03T00:16:34;99069.56;;;0.93;100.00
9717;BME280;4897;43.570;27.832;2023-02-03T00:19:00;99094.25;;;1.09;100.00
9717;BME280;4897;43.570;27.832;2023-02-03T00:21:27;99111.75;;;1.10;100.00
9717;BME280;4897;43.570;27.832;2023-02-03T00:23:54;99007.81;;;0.46;100.00
9717;BME280;4897;43.570;27.832;2023-02-03T00:26:22;99095.41;;;1.04;100.00
9717;BME280;4897;43.570;27.832;2023-02-03T00:28:50;99078.75;;;0.85;100.00
9717;BME280;4897;43.570;27.832;2023-02-03T00:31:18;99106.91;;;1.01;100.00
9717;BME280;4897;43.570;27.832;2023-02-03T00:33:46;99111.63;;;0.95;100.00
9717;BME280;4897;43.570;27.832;2023-02-03T00:36:12;99115.97;;;0.96;100.00
9717;BME280;4897;43.570;27.832;2023-02-03T00:38:39;99116.75;;;0.98;100.00
9717;BME280;4897;43.570;27.832;2023-02-03T00:41:06;99108.38;;;0.90;100.00
9717;BME280;4897;43.570;27.832;2023-02-03T00:43:34;99120.88;;;0.85;100.00
9717;BME280;4897;43.570;27.832;2023-02-03T00:46:01;99113.06;;;0.83;100.00
9717;BME280;4897;43.570;27.832;2023-02-03T00:48:28;99113.47;;;0.93;100.00
9717;BME280;4897;43.570;27.832;2023-02-03T00:50:55;99115.19;;;0.94;100.00
9717;BME280;4897;43.570;27.832;2023-02-03T00:53:22;99120.59;;;0.91;100.00
9717;BME280;4897;43.570;27.832;2023-02-03T00:55:49;99108.41;;;0.88;100.00
9717;BME280;4897;43.570;27.832;2023-02-03T00:58:16;99110.06;;;0.91;100.00
9717;BME280;4897;43.570;27.832;2023-02-03T01:00:44;99109.41;;;0.86;100.00
9717;BME280;4897;43.570;27.832;2023-02-03T01:03:11;99110.34;;;1.03;100.00
9717;BME280;4897;43.570;27.832;2023-02-03T01:05:38;99107.91;;;0.99;100.00
9717;BME280;4897;43.570;27.832;2023-02-03T01:08:05;99123.88;;;0.96;100.00
9717;BME280;4897;43.570;27.832;2023-02-03T01:10:32;99102.06;;;0.92;100.00
9717;BME280;4897;43.570;27.832;2023-02-03T01:12:58;99113.09;;;1.00;100.00
9717;BME280;4897;43.570;27.832;2023-02-03T01:15:25;99074.84;;;0.74;100.00
9717;BME280;4897;43.570;27.832;2023-02-03T01:17:53;99108.06;;;0.96;100.00
9717;BME280;4897;43.570;27.832;2023-02-03T01:20:20;99106.22;;;0.98;100.00
9717;BME280;4897;43.570;27.832;2023-02-03T01:22:48;99091.22;;;0.81;100.00
9717;BME280;4897;43.570;27.832;2023-02-03T01:25:15;99115.03;;;0.97;100.00
9717;BME280;4897;43.570;27.832;2023-02-03T01:27:42;99113.47;;;0.93;100.00
9717;BME280;4897;43.570;27.832;2023-02-03T01:30:10;99097.31;;;0.81;100.00
9717;BME280;4897;43.570;27.832;2023-02-03T01:32:37;99115.19;;;0.94;100.00
9717;BME280;4897;43.570;27.832;2023-02-03T01:35:06;99113.09;;;1.00;100.00
9717;BME280;4897;43.570;27.832;2023-02-03T01:37:32;99107.81;;;1.00;100.00
9717;BME280;4897;43.570;27.832;2023-02-03T01:39:59;99110.25;;;1.05;100.00
9717;BME280;4897;43.570;27.832;2023-02-03T01:42:29;99056.66;;;0.51;100.00
9717;BME280;4897;43.570;27.832;2023-02-03T01:44:58;99127.00;;;1.04;100.00
9717;BME280;4897;43.570;27.832;2023-02-03T01:47:28;99077.63;;;0.71;100.00
9717;BME280;4897;43.570;27.832;2023-02-03T01:50:07;99123.09;;;0.94;100.00
9717;BME280;4897;43.570;27.832;2023-02-03T01:52:35;99108.00;;;0.78;100.00
9717;BME280;4897;43.570;27.832;2023-02-03T01:55:07;99135.59;;;0.89;100.00
9717;BME280;4897;43.570;27.832;2023-02-03T01:57:39;99136.00;;;0.79;100.00
9717;BME280;4897;43.570;27.832;2023-02-03T02:00:09;99140.06;;;0.87;100.00
9717;BME280;4897;43.570;27.832;2023-02-03T02:02:36;98933.44;;;-0.32;100.00
9717;BME280;4897;43.570;27.832;2023-02-03T02:05:08;99115.59;;;0.66;100.00
9717;BME280;4897;43.570;27.832;2023-02-03T02:07:40;99148.84;;;0.87;100.00
9717;BME280;4897;43.570;27.832;2023-02-03T02:10:08;99149.31;;;0.76;100.00
9717;BME280;4897;43.570;27.832;2023-02-03T02:12:36;99148.03;;;0.66;100.00
9717;BME280;4897;43.570;27.832;2023-02-03T02:15:03;99138.22;;;0.70;100.00
9717;BME280;4897;43.570;27.832;2023-02-03T02:17:45;99154.44;;;0.79;100.00
9717;BME280;4897;43.570;27.832;2023-02-03T02:20:34;99127.41;;;0.76;100.00
9717;BME280;4897;43.570;27.832;2023-02-03T02:23:29;99139.16;;;0.88;100.00
9717;BME280;4897;43.570;27.832;2023-02-03T02:26:12;99140.28;;;0.82;100.00
9717;BME280;4897;43.570;27.832;2023-02-03T02:29:17;99164.81;;;0.82;100.00
9717;BME280;4897;43.570;27.832;2023-02-03T02:31:56;99151.00;;;0.77;100.00
9717;BME280;4897;43.570;27.832;2023-02-03T02:34:37;99135.09;;;0.80;100.00
9717;BME280;4897;43.570;27.832;2023-02-03T02:37:11;99159.19;;;0.90;100.00
9717;BME280;4897;43.570;27.832;2023-02-03T02:39:45;99159.56;;;0.82;100.00
9717;BME280;4897;43.570;27.832;2023-02-03T02:42:18;99146.81;;;0.73;100.00
9717;BME280;4897;43.570;27.832;2023-02-03T02:44:52;99160.91;;;0.72;100.00
9717;BME280;4897;43.570;27.832;2023-02-03T02:47:23;99139.75;;;0.55;100.00
9717;BME280;4897;43.570;27.832;2023-02-03T02:49:58;99172.00;;;0.60;100.00
9717;BME280;4897;43.570;27.832;2023-02-03T02:52:29;99172.63;;;0.65;100.00
9717;BME280;4897;43.570;27.832;2023-02-03T02:55:01;99177.75;;;0.68;100.00
9717;BME280;4897;43.570;27.832;2023-02-03T02:57:29;99175.41;;;0.62;100.00
9717;BME280;4897;43.570;27.832;2023-02-03T02:59:57;99033.97;;;-0.29;100.00
9717;BME280;4897;43.570;27.832;2023-02-03T03:02:31;99172.63;;;0.65;100.00
9717;BME280;4897;43.570;27.832;2023-02-03T03:05:00;99178.03;;;0.62;100.00
9717;BME280;4897;43.570;27.832;2023-02-03T03:07:28;99152.72;;;0.60;100.00
9717;BME280;4897;43.570;27.832;2023-02-03T03:10:02;99158.06;;;0.58;100.00
9717;BME280;4897;43.570;27.832;2023-02-03T03:12:33;99156.31;;;0.57;100.00
9717;BME280;4897;43.570;27.832;2023-02-03T03:15:04;99138.03;;;0.54;100.00
9717;BME280;4897;43.570;27.832;2023-02-03T03:17:39;99121.25;;;0.38;100.00
9717;BME280;4897;43.570;27.832;2023-02-03T03:20:10;99141.88;;;0.47;100.00
9717;BME280;4897;43.570;27.832;2023-02-03T03:22:43;99145.41;;;0.46;100.00
9717;BME280;4897;43.570;27.832;2023-02-03T03:25:13;99144.63;;;0.44;100.00
9717;BME280;4897;43.570;27.832;2023-02-03T03:27:47;99136.91;;;0.41;100.00
9717;BME280;4897;43.570;27.832;2023-02-03T03:30:17;99139.41;;;0.24;100.00
9717;BME280;4897;43.570;27.832;2023-02-03T03:32:48;99145.72;;;0.20;100.00
9717;BME280;4897;43.570;27.832;2023-02-03T03:35:15;99142.94;;;0.23;100.00
9717;BME280;4897;43.570;27.832;2023-02-03T03:37:48;99126.03;;;0.10;100.00
9717;BME280;4897;43.570;27.832;2023-02-03T03:40:21;99151.78;;;0.22;100.00
9717;BME280;4897;43.570;27.832;2023-02-03T03:42:50;99166.59;;;0.23;100.00
9717;BME280;4897;43.570;27.832;2023-02-03T03:45:23;99155.19;;;0.24;100.00
9717;BME280;4897;43.570;27.832;2023-02-03T03:47:57;99159.84;;;0.18;100.00
9717;BME280;4897;43.570;27.832;2023-02-03T03:50:27;99168.06;;;0.10;100.00
9717;BME280;4897;43.570;27.832;2023-02-03T03:52:57;99152.81;;;-0.02;100.00
9717;BME280;4897;43.570;27.832;2023-02-03T03:55:27;99164.91;;;0.02;100.00
9717;BME280;4897;43.570;27.832;2023-02-03T03:57:58;99170.56;;;0.13;100.00
9717;BME280;4897;43.570;27.832;2023-02-03T04:00:28;99152.81;;;-0.02;100.00
9717;BME280;4897;43.570;27.832;2023-02-03T04:03:00;99175.22;;;0.07;100.00
9717;BME280;4897;43.570;27.832;2023-02-03T04:05:31;99188.59;;;0.02;100.00
9717;BME280;4897;43.570;27.832;2023-02-03T04:07:59;99191.66;;;-0.09;100.00
9717;BME280;4897;43.570;27.832;2023-02-03T04:10:30;99183.16;;;-0.15;100.00
9717;BME280;4897;43.570;27.832;2023-02-03T04:12:57;99187.91;;;-0.03;100.00
9717;BME280;4897;43.570;27.832;2023-02-03T04:15:24;99181.31;;;-0.13;100.00
9717;BME280;4897;43.570;27.832;2023-02-03T04:17:51;99194.47;;;-0.13;100.00
9717;BME280;4897;43.570;27.832;2023-02-03T04:20:20;99192.69;;;-0.13;100.00
9717;BME280;4897;43.570;27.832;2023-02-03T04:22:47;99196.94;;;-0.10;100.00
9717;BME280;4897;43.570;27.832;2023-02-03T04:25:14;99199.66;;;-0.12;100.00
9717;BME280;4897;43.570;27.832;2023-02-03T04:27:41;99212.25;;;0.02;100.00
9717;BME280;4897;43.570;27.832;2023-02-03T04:30:09;99203.84;;;-0.08;100.00
9717;BME280;4897;43.570;27.832;2023-02-03T04:32:36;99233.63;;;-0.07;100.00
9717;BME280;4897;43.570;27.832;2023-02-03T04:35:05;99203.94;;;-0.09;100.00
9717;BME280;4897;43.570;27.832;2023-02-03T04:37:33;99210.03;;;-0.09;100.00
9717;BME280;4897;43.570;27.832;2023-02-03T04:40:00;99211.03;;;-0.11;100.00
9717;BME280;4897;43.570;27.832;2023-02-03T04:42:27;99205.50;;;-0.05;100.00
9717;BME280;4897;43.570;27.832;2023-02-03T04:44:54;99213.06;;;0.03;100.00
9717;BME280;4897;43.570;27.832;2023-02-03T04:47:20;99219.44;;;-0.03;100.00
9717;BME280;4897;43.570;27.832;2023-02-03T04:49:47;99221.13;;;-0.02;100.00
9717;BME280;4897;43.570;27.832;2023-02-03T04:52:14;99226.03;;;0.07;100.00
9717;BME280;4897;43.570;27.832;2023-02-03T04:54:42;99215.06;;;-0.03;100.00
9717;BME280;4897;43.570;27.832;2023-02-03T04:57:09;99224.59;;;0.00;100.00
9717;BME280;4897;43.570;27.832;2023-02-03T04:59:36;99227.06;;;0.03;100.00
9717;BME280;4897;43.570;27.832;2023-02-03T05:02:03;99217.50;;;0.02;100.00
9717;BME280;4897;43.570;27.832;2023-02-03T05:04:30;99229.94;;;0.19;100.00
9717;BME280;4897;43.570;27.832;2023-02-03T05:06:57;99232.59;;;0.17;100.00
9717;BME280;4897;43.570;27.832;2023-02-03T05:09:25;99215.94;;;-0.04;100.00
9717;BME280;4897;43.570;27.832;2023-02-03T05:11:53;99219.34;;;0.00;100.00
9717;BME280;4897;43.570;27.832;2023-02-03T05:14:20;99241.69;;;0.10;100.00
9717;BME280;4897;43.570;27.832;2023-02-03T05:16:47;99247.06;;;0.07;100.00
9717;BME280;4897;43.570;27.832;2023-02-03T05:19:13;99258.19;;;0.14;100.00
9717;BME280;4897;43.570;27.832;2023-02-03T05:21:40;99260.34;;;0.04;100.00
9717;BME280;4897;43.570;27.832;2023-02-03T05:24:08;99253.53;;;-0.02;100.00
9717;BME280;4897;43.570;27.832;2023-02-03T05:26:35;99273.66;;;-0.01;100.00
9717;BME280;4897;43.570;27.832;2023-02-03T05:29:03;99249.69;;;0.07;100.00
9717;BME280;4897;43.570;27.832;2023-02-03T05:31:30;99252.31;;;0.07;100.00
9717;BME280;4897;43.570;27.832;2023-02-03T05:33:57;99263.50;;;0.12;100.00
9717;BME280;4897;43.570;27.832;2023-02-03T05:36:24;99260.38;;;0.03;100.00
9717;BME280;4897;43.570;27.832;2023-02-03T05:38:51;99279.53;;;0.06;100.00
9717;BME280;4897;43.570;27.832;2023-02-03T05:41:18;99271.25;;;0.15;100.00
9717;BME280;4897;43.570;27.832;2023-02-03T05:44:09;99272.03;;;0.17;100.00
9717;BME280;4897;43.570;27.832;2023-02-03T05:46:36;99254.66;;;0.15;100.00
9717;BME280;4897;43.570;27.832;2023-02-03T05:49:03;99278.31;;;0.35;100.00
9717;BME280;4897;43.570;27.832;2023-02-03T05:51:30;99265.25;;;0.33;100.00
9717;BME280;4897;43.570;27.832;2023-02-03T05:53:56;99268.59;;;0.37;100.00
9717;BME280;4897;43.570;27.832;2023-02-03T05:56:23;99269.19;;;0.43;100.00
9717;BME280;4897;43.570;27.832;2023-02-03T05:58:50;99264.56;;;0.48;100.00
9717;BME280;4897;43.570;27.832;2023-02-03T06:01:19;99275.97;;;0.49;100.00
9717;BME280;4897;43.570;27.832;2023-02-03T06:03:47;99286.03;;;0.59;100.00
9717;BME280;4897;43.570;27.832;2023-02-03T06:06:14;99283.25;;;0.42;100.00
9717;BME280;4897;43.570;27.832;2023-02-03T06:08:41;99306.09;;;0.62;100.00
9717;BME280;4897;43.570;27.832;2023-02-03T06:11:08;99069.88;;;-0.69;100.00
9717;BME280;4897;43.570;27.832;2023-02-03T06:13:35;99310.03;;;0.72;100.00
9717;BME280;4897;43.570;27.832;2023-02-03T06:16:02;99314.41;;;0.73;100.00
9717;BME280;4897;43.570;27.832;2023-02-03T06:18:30;99309.19;;;0.71;100.00
9717;BME280;4897;43.570;27.832;2023-02-03T06:20:57;99287.25;;;0.71;100.00
9717;BME280;4897;43.570;27.832;2023-02-03T06:23:26;99291.44;;;0.76;100.00
9717;BME280;4897;43.570;27.832;2023-02-03T06:25:53;99301.16;;;0.95;100.00
9717;BME280;4897;43.570;27.832;2023-02-03T06:28:20;99288.78;;;0.97;100.00
9717;BME280;4897;43.570;27.832;2023-02-03T06:30:48;99299.50;;;1.12;100.00
9717;BME280;4897;43.570;27.832;2023-02-03T06:33:16;99286.66;;;1.05;100.00
9717;BME280;4897;43.570;27.832;2023-02-03T06:35:44;99307.19;;;1.17;100.00
9717;BME280;4897;43.570;27.832;2023-02-03T06:38:11;99288.59;;;1.20;100.00
9717;BME280;4897;43.570;27.832;2023-02-03T06:40:41;99304.78;;;1.31;100.00
9717;BME280;4897;43.570;27.832;2023-02-03T06:43:09;99310.13;;;1.29;100.00
9717;BME280;4897;43.570;27.832;2023-02-03T06:45:36;99295.41;;;1.44;100.00
9717;BME280;4897;43.570;27.832;2023-02-03T06:48:03;99316.22;;;1.69;100.00
9717;BME280;4897;43.570;27.832;2023-02-03T06:50:30;99320.75;;;1.65;100.00
9717;BME280;4897;43.570;27.832;2023-02-03T06:52:58;99324.16;;;1.67;100.00
9717;BME280;4897;43.570;27.832;2023-02-03T06:55:25;99321.41;;;1.70;100.00
9717;BME280;4897;43.570;27.832;2023-02-03T06:57:52;99323.47;;;1.82;100.00
9717;BME280;4897;43.570;27.832;2023-02-03T07:00:19;99330.28;;;1.86;100.00
9717;BME280;4897;43.570;27.832;2023-02-03T07:02:52;99322.88;;;1.94;100.00
9717;BME280;4897;43.570;27.832;2023-02-03T07:05:19;99311.53;;;1.92;100.00
9717;BME280;4897;43.570;27.832;2023-02-03T07:07:46;99318.03;;;2.04;100.00
9717;BME280;4897;43.570;27.832;2023-02-03T07:10:15;99333.13;;;2.00;100.00
9717;BME280;4897;43.570;27.832;2023-02-03T07:12:41;99328.97;;;2.13;100.00
9717;BME280;4897;43.570;27.832;2023-02-03T07:15:11;99325.09;;;2.03;100.00
9717;BME280;4897;43.570;27.832;2023-02-03T07:17:38;99366.06;;;2.10;100.00
9717;BME280;4897;43.570;27.832;2023-02-03T07:20:06;99408.56;;;2.23;100.00
9717;BME280;4897;43.570;27.832;2023-02-03T07:22:35;99372.19;;;2.29;100.00
9717;BME280;4897;43.570;27.832;2023-02-03T07:25:03;99348.09;;;2.18;100.00
9717;BME280;4897;43.570;27.832;2023-02-03T07:27:31;99377.00;;;2.38;100.00
9717;BME280;4897;43.570;27.832;2023-02-03T07:30:01;99374.84;;;2.47;100.00
9717;BME280;4897;43.570;27.832;2023-02-03T07:32:29;99358.44;;;2.59;100.00
9717;BME280;4897;43.570;27.832;2023-02-03T07:34:55;99354.28;;;2.53;100.00
9717;BME280;4897;43.570;27.832;2023-02-03T07:37:22;99359.44;;;2.56;100.00
9717;BME280;4897;43.570;27.832;2023-02-03T07:39:49;99364.00;;;2.70;100.00
9717;BME280;4897;43.570;27.832;2023-02-03T07:42:16;99363.31;;;2.66;100.00
9717;BME280;4897;43.570;27.832;2023-02-03T07:44:44;99367.19;;;2.76;100.00
9717;BME280;4897;43.570;27.832;2023-02-03T07:47:11;99353.78;;;2.81;100.00
9717;BME280;4897;43.570;27.832;2023-02-03T07:49:40;99376.59;;;2.99;100.00
9717;BME280;4897;43.570;27.832;2023-02-03T07:52:08;99382.34;;;3.07;100.00
9717;BME280;4897;43.570;27.832;2023-02-03T07:54:34;99372.56;;;3.09;100.00
9717;BME280;4897;43.570;27.832;2023-02-03T07:57:01;99397.03;;;3.12;100.00
9717;BME280;4897;43.570;27.832;2023-02-03T07:59:28;99387.31;;;3.13;100.00
9717;BME280;4897;43.570;27.832;2023-02-03T08:01:56;99389.72;;;3.17;100.00
9717;BME280;4897;43.570;27.832;2023-02-03T08:04:23;99398.81;;;3.12;100.00
9717;BME280;4897;43.570;27.832;2023-02-03T08:06:50;99398.81;;;3.29;100.00
9717;BME280;4897;43.570;27.832;2023-02-03T08:09:17;99365.25;;;3.31;100.00
9717;BME280;4897;43.570;27.832;2023-02-03T08:11:44;99396.00;;;3.49;100.00
9717;BME280;4897;43.570;27.832;2023-02-03T08:14:13;99372.63;;;3.42;100.00
9717;BME280;4897;43.570;27.832;2023-02-03T08:16:40;99415.34;;;3.67;100.00
9717;BME280;4897;43.570;27.832;2023-02-03T08:19:09;99398.28;;;3.72;100.00
9717;BME280;4897;43.570;27.832;2023-02-03T08:21:36;99408.19;;;3.84;100.00
9717;BME280;4897;43.570;27.832;2023-02-03T08:24:03;99410.44;;;4.07;100.00
9717;BME280;4897;43.570;27.832;2023-02-03T08:26:30;99405.34;;;4.04;100.00
9717;BME280;4897;43.570;27.832;2023-02-03T08:28:57;99390.47;;;4.02;100.00
9717;BME280;4897;43.570;27.832;2023-02-03T08:31:24;99400.25;;;4.17;100.00
9717;BME280;4897;43.570;27.832;2023-02-03T08:33:51;99387.69;;;4.21;100.00
9717;BME280;4897;43.570;27.832;2023-02-03T08:36:19;99397.75;;;4.30;100.00
9717;BME280;4897;43.570;27.832;2023-02-03T08:38:46;99378.97;;;4.19;100.00
9717;BME280;4897;43.570;27.832;2023-02-03T08:41:16;99411.13;;;4.42;100.00
9717;BME280;4897;43.570;27.832;2023-02-03T08:43:44;99407.31;;;4.48;100.00
9717;BME280;4897;43.570;27.832;2023-02-03T08:46:11;99399.53;;;4.45;100.00
9717;BME280;4897;43.570;27.832;2023-02-03T08:48:38;99414.72;;;4.57;100.00
9717;BME280;4897;43.570;27.832;2023-02-03T08:51:09;99424.81;;;4.66;100.00
9717;BME280;4897;43.570;27.832;2023-02-03T08:53:37;99441.19;;;4.57;100.00
9717;BME280;4897;43.570;27.832;2023-02-03T08:56:05;99420.03;;;4.57;100.00
9717;BME280;4897;43.570;27.832;2023-02-03T08:58:32;99415.38;;;4.76;100.00
9717;BME280;4897;43.570;27.832;2023-02-03T09:01:05;99393.03;;;4.66;100.00
9717;BME280;4897;43.570;27.832;2023-02-03T09:03:33;99403.09;;;4.75;100.00
9717;BME280;4897;43.570;27.832;2023-02-03T09:05:59;99417.69;;;5.27;100.00
9717;BME280;4897;43.570;27.832;2023-02-03T09:08:26;99412.84;;;6.20;100.00
9717;BME280;4897;43.570;27.832;2023-02-03T09:10:55;99402.13;;;8.41;100.00
9717;BME280;4897;43.570;27.832;2023-02-03T09:13:22;99408.25;;;9.49;100.00
9717;BME280;4897;43.570;27.832;2023-02-03T09:15:49;99407.22;;;10.07;100.00
9717;BME280;4897;43.570;27.832;2023-02-03T09:18:16;99409.22;;;10.92;100.00
9717;BME280;4897;43.570;27.832;2023-02-03T09:20:43;99381.38;;;10.94;100.00
9717;BME280;4897;43.570;27.832;2023-02-03T09:23:10;99409.50;;;10.67;100.00
9717;BME280;4897;43.570;27.832;2023-02-03T09:25:37;99415.28;;;10.51;99.66
9717;BME280;4897;43.570;27.832;2023-02-03T09:28:05;99386.69;;;10.52;94.81
9717;BME280;4897;43.570;27.832;2023-02-03T09:30:32;99415.97;;;11.18;89.72
9717;BME280;4897;43.570;27.832;2023-02-03T09:32:59;99412.81;;;11.02;89.96
9717;BME280;4897;43.570;27.832;2023-02-03T09:35:26;99402.13;;;11.95;83.11
9717;BME280;4897;43.570;27.832;2023-02-03T09:37:54;99417.66;;;11.71;80.20
9717;BME280;4897;43.570;27.832;2023-02-03T09:40:30;99415.16;;;9.62;100.00
9717;BME280;4897;43.570;27.832;2023-02-03T09:43:19;99410.81;;;8.56;100.00
9717;BME280;4897;43.570;27.832;2023-02-03T09:45:51;99416.63;;;10.23;100.00
9717;BME280;4897;43.570;27.832;2023-02-03T09:48:20;99401.50;;;10.56;91.91
9717;BME280;4897;43.570;27.832;2023-02-03T09:50:49;99415.41;;;10.27;100.00
9717;BME280;4897;43.570;27.832;2023-02-03T09:53:24;99391.53;;;10.69;92.31
9717;BME280;4897;43.570;27.832;2023-02-03T09:55:53;99390.28;;;13.08;73.12
9717;BME280;4897;43.570;27.832;2023-02-03T09:58:22;99387.69;;;13.63;60.91
9717;BME280;4897;43.570;27.832;2023-02-03T10:00:53;99390.53;;;13.52;57.93
9717;BME280;4897;43.570;27.832;2023-02-03T10:03:28;99389.00;;;10.99;75.58
9717;BME280;4897;43.570;27.832;2023-02-03T10:06:09;99385.53;;;11.19;76.35
9717;BME280;4897;43.570;27.832;2023-02-03T10:09:00;99382.28;;;12.87;67.27
9717;BME280;4897;43.570;27.832;2023-02-03T10:12:04;99391.97;;;13.18;57.13
9717;BME280;4897;43.570;27.832;2023-02-03T10:14:44;99380.19;;;14.32;57.11
9717;BME280;4897;43.570;27.832;2023-02-03T10:17:25;99383.59;;;15.85;50.20
9717;BME280;4897;43.570;27.832;2023-02-03T10:19:58;99340.00;;;15.46;48.38
9717;BME280;4897;43.570;27.832;2023-02-03T10:22:30;99370.56;;;16.65;45.92
9717;BME280;4897;43.570;27.832;2023-02-03T10:25:02;99367.03;;;17.71;43.40
9717;BME280;4897;43.570;27.832;2023-02-03T10:27:34;99366.78;;;16.50;44.26
9717;BME280;4897;43.570;27.832;2023-02-03T10:30:16;99378.53;;;14.49;48.67
9717;BME280;4897;43.570;27.832;2023-02-03T10:32:44;99373.53;;;15.16;46.62
9717;BME280;4897;43.570;27.832;2023-02-03T10:35:12;99368.94;;;15.62;44.93
9717;BME280;4897;43.570;27.832;2023-02-03T10:37:42;99376.81;;;16.32;44.38
9717;BME280;4897;43.570;27.832;2023-02-03T10:40:14;99363.31;;;17.48;42.71
9717;BME280;4897;43.570;27.832;2023-02-03T10:42:43;99374.88;;;17.00;43.39
9717;BME280;4897;43.570;27.832;2023-02-03T10:45:36;99375.25;;;15.70;44.79
9717;BME280;4897;43.570;27.832;2023-02-03T10:48:04;99377.72;;;16.15;44.22
9717;BME280;4897;43.570;27.832;2023-02-03T10:50:35;99380.34;;;15.56;44.79
9717;BME280;4897;43.570;27.832;2023-02-03T10:53:24;99365.88;;;14.59;48.05
9717;BME280;4897;43.570;27.832;2023-02-03T10:56:04;99385.59;;;13.19;51.03
9717;BME280;4897;43.570;27.832;2023-02-03T10:58:33;99363.66;;;14.08;51.09
9717;BME280;4897;43.570;27.832;2023-02-03T11:01:09;99368.69;;;15.38;47.21
9717;BME280;4897;43.570;27.832;2023-02-03T11:03:37;99358.53;;;16.94;43.76
9717;BME280;4897;43.570;27.832;2023-02-03T11:06:09;99346.00;;;18.13;40.76
9717;BME280;4897;43.570;27.832;2023-02-03T11:08:38;99356.47;;;18.24;40.52
9717;BME280;4897;43.570;27.832;2023-02-03T11:11:07;99345.88;;;17.99;40.36
9717;BME280;4897;43.570;27.832;2023-02-03T11:13:36;99351.88;;;16.80;42.04
9717;BME280;4897;43.570;27.832;2023-02-03T11:16:04;99362.28;;;16.67;42.90
9717;BME280;4897;43.570;27.832;2023-02-03T11:18:43;99344.81;;;16.12;43.56
9717;BME280;4897;43.570;27.832;2023-02-03T11:21:14;99362.56;;;15.45;45.20
9717;BME280;4897;43.570;27.832;2023-02-03T11:23:47;99368.09;;;14.27;47.05
9717;BME280;4897;43.570;27.832;2023-02-03T11:26:18;99359.88;;;13.36;50.79
9717;BME280;4897;43.570;27.832;2023-02-03T11:28:48;99351.88;;;13.82;52.45
9717;BME280;4897;43.570;27.832;2023-02-03T11:31:18;99351.25;;;13.98;51.60
9717;BME280;4897;43.570;27.832;2023-02-03T11:33:51;99372.88;;;13.12;53.98
9717;BME280;4897;43.570;27.832;2023-02-03T11:36:19;99367.94;;;12.09;55.77
9717;BME280;4897;43.570;27.832;2023-02-03T11:38:48;99361.81;;;11.56;58.83
9717;BME280;4897;43.570;27.832;2023-02-03T11:41:17;99369.13;;;10.81;59.45
9717;BME280;4897;43.570;27.832;2023-02-03T11:43:45;99371.41;;;10.31;67.04
9717;BME280;4897;43.570;27.832;2023-02-03T11:46:13;99371.78;;;10.49;70.88
9717;BME280;4897;43.570;27.832;2023-02-03T11:48:50;99351.69;;;10.55;69.65
9717;BME280;4897;43.570;27.832;2023-02-03T11:51:32;99361.28;;;13.11;56.88
9717;BME280;4897;43.570;27.832;2023-02-03T11:54:16;99349.97;;;14.83;49.73
9717;BME280;4897;43.570;27.832;2023-02-03T11:57:04;99351.88;;;13.82;48.91
9717;BME280;4897;43.570;27.832;2023-02-03T12:00:00;99371.59;;;11.77;56.35
9717;BME280;4897;43.570;27.832;2023-02-03T12:03:01;99355.22;;;11.39;61.03
9717;BME280;4897;43.570;27.832;2023-02-03T12:08:42;99355.91;;;11.00;67.12
9717;BME280;4897;43.570;27.832;2023-02-03T12:11:20;99352.41;;;12.42;55.35
9717;BME280;4897;43.570;27.832;2023-02-03T12:14:02;99328.53;;;13.08;53.80
9717;BME280;4897;43.570;27.832;2023-02-03T12:19:43;99364.22;;;10.97;62.24
9717;BME280;4897;43.570;27.832;2023-02-03T12:22:20;99345.19;;;10.36;69.56
9717;BME280;4897;43.570;27.832;2023-02-03T12:24:55;99359.00;;;10.41;74.75
9717;BME280;4897;43.570;27.832;2023-02-03T12:27:35;99360.00;;;10.18;66.90
9717;BME280;4897;43.570;27.832;2023-02-03T12:30:08;99356.81;;;9.91;69.74
9717;BME280;4897;43.570;27.832;2023-02-03T12:32:42;99299.88;;;9.57;73.61
9717;BME280;4897;43.570;27.832;2023-02-03T12:35:15;99359.13;;;9.74;76.72
9717;BME280;4897;43.570;27.832;2023-02-03T12:37:49;99371.38;;;9.65;76.48
9717;BME280;4897;43.570;27.832;2023-02-03T12:40:22;99354.31;;;9.33;69.40
9717;BME280;4897;43.570;27.832;2023-02-03T12:42:59;99355.50;;;9.18;70.39
9717;BME280;4897;43.570;27.832;2023-02-03T12:45:32;99361.59;;;8.96;77.82
9717;BME280;4897;43.570;27.832;2023-02-03T12:48:08;99370.78;;;8.92;82.66
9717;BME280;4897;43.570;27.832;2023-02-03T12:50:39;99363.81;;;8.78;80.92
9717;BME280;4897;43.570;27.832;2023-02-03T12:53:13;99355.97;;;8.64;83.89
9717;BME280;4897;43.570;27.832;2023-02-03T12:55:45;99365.91;;;8.62;83.74
9717;BME280;4897;43.570;27.832;2023-02-03T12:58:19;99359.50;;;8.65;80.55
9717;BME280;4897;43.570;27.832;2023-02-03T13:00:50;99349.84;;;8.51;80.74
9717;BME280;4897;43.570;27.832;2023-02-03T13:03:25;99354.69;;;8.46;87.34
9717;BME280;4897;43.570;27.832;2023-02-03T13:06:01;99340.34;;;8.36;90.51
9717;BME280;4897;43.570;27.832;2023-02-03T13:08:33;99347.69;;;8.33;94.69
9717;BME280;4897;43.570;27.832;2023-02-03T13:11:17;99352.78;;;8.23;95.78
9717;BME280;4897;43.570;27.832;2023-02-03T13:13:49;99312.53;;;7.79;100.00
9717;BME280;4897;43.570;27.832;2023-02-03T13:16:20;99351.09;;;7.61;100.00
9717;BME280;4897;43.570;27.832;2023-02-03T13:18:52;99338.06;;;7.94;100.00
9717;BME280;4897;43.570;27.832;2023-02-03T13:21:21;99346.00;;;8.19;100.00
9717;BME280;4897;43.570;27.832;2023-02-03T13:23:50;99336.13;;;7.96;100.00
9717;BME280;4897;43.570;27.832;2023-02-03T13:26:47;99347.75;;;7.82;100.00
9717;BME280;4897;43.570;27.832;2023-02-03T13:29:43;99343.34;;;8.06;100.00
9717;BME280;4897;43.570;27.832;2023-02-03T13:32:23;99334.75;;;8.39;100.00
9717;BME280;4897;43.570;27.832;2023-02-03T13:35:14;99333.41;;;7.60;100.00